Time;durP1;ratioP1;P1;durP2;ratioP2;P2;SDS_P1;SDS_P2;PMS_P1;PMS_P2;Temp;Humidity;BMP_temperature;BMP_pressure;BME280_temperature;BME280_humidity;BME280_pressure;Samples;Min_cycle;Max_cycle;Signal;HPM_P1;HPM_P2
2024/03/22 00:02:10;;;;;;;;;51.00;35.67;;;;;9.14;87.50;100525.50;111458;255;40867;-51
2024/03/22 00:04:52;;;;;;;;;46.50;34.00;;;;;9.18;87.49;100523.46;110863;243;590745;-51
2024/03/22 00:07:26;;;;;;;;;51.75;36.00;;;;;9.21;87.60;100520.88;111362;255;39729;-52
2024/03/22 00:10:09;;;;;;;;;51.50;37.00;;;;;9.22;87.70;100520.46;111445;255;39800;-53
2024/03/22 00:12:46;;;;;;;;;49.00;35.00;;;;;9.20;87.69;100517.08;111543;254;40925;-55
2024/03/22 00:15:27;;;;;;;;;59.00;43.00;;;;;9.22;87.87;100517.53;111548;254;39358;-55
2024/03/22 00:18:07;;;;;;;;;62.33;43.00;;;;;9.21;87.88;100515.82;111548;241;161967;-51
2024/03/22 00:20:45;;;;;;;;;46.00;33.50;;;;;9.17;87.92;100517.23;111507;255;39410;-51
2024/03/22 00:23:23;;;;;;;;;52.50;37.00;;;;;9.18;87.92;100513.95;111490;241;161872;-51
2024/03/22 00:25:59;;;;;;;;;54.00;40.00;;;;;9.17;88.19;100512.95;111518;255;39533;-51
2024/03/22 00:28:42;;;;;;;;;45.50;33.75;;;;;9.16;88.30;100510.86;111407;255;161938;-56
2024/03/22 00:31:27;;;;;;;;;62.25;43.25;;;;;9.17;88.29;100511.16;111524;255;39230;-56
2024/03/22 00:34:01;;;;;;;;;59.00;43.33;;;;;9.13;88.67;100511.95;111346;255;39395;-52
2024/03/22 00:36:40;;;;;;;;;57.25;42.00;;;;;9.12;88.69;100509.45;111245;256;41505;-52
2024/03/22 00:39:21;;;;;;;;;61.00;44.00;;;;;9.05;89.09;100504.45;111507;255;39115;-53
2024/03/22 00:41:58;;;;;;;;;58.50;40.25;;;;;9.00;89.19;100505.23;111410;241;161298;-52
2024/03/22 00:44:40;;;;;;;;;58.00;41.25;;;;;8.97;89.32;100502.35;111422;255;40057;-53
2024/03/22 00:47:23;;;;;;;;;55.00;38.00;;;;;8.93;89.52;100496.13;111327;241;161909;-53
2024/03/22 00:49:58;;;;;;;;;50.00;35.00;;;;;8.95;89.62;100495.09;111529;255;39519;-55
2024/03/22 00:52:33;;;;;;;;;55.00;39.00;;;;;8.95;89.70;100490.16;111377;241;162298;-53
2024/03/22 00:55:08;;;;;;;;;54.00;40.00;;;;;9.00;89.75;100486.02;111497;255;39783;-53
2024/03/22 00:57:45;;;;;;;;;58.67;39.00;;;;;9.00;89.91;100488.86;111458;255;40870;-53
2024/03/22 01:00:23;;;;;;;;;62.00;43.00;;;;;9.03;89.95;100490.20;111367;241;161579;-52
2024/03/22 01:02:58;;;;;;;;;50.67;37.33;;;;;8.99;90.25;100494.05;111396;256;39163;-55
2024/03/22 01:05:39;;;;;;;;;52.67;36.67;;;;;8.97;90.41;100496.39;111380;241;161871;-55
2024/03/22 01:08:18;;;;;;;;;48.25;37.00;;;;;8.95;90.70;100497.23;111339;255;39761;-51
2024/03/22 01:10:59;;;;;;;;;58.50;42.50;;;;;8.91;90.91;100503.19;111388;242;162035;-51
2024/03/22 01:13:38;;;;;;;;;51.75;37.25;;;;;8.88;91.17;100500.27;111481;255;40257;-52
2024/03/22 01:16:16;;;;;;;;;51.67;36.67;;;;;8.88;91.11;100497.54;111393;242;162958;-51
2024/03/22 01:18:55;;;;;;;;;51.50;37.00;;;;;8.87;91.34;100494.08;111529;255;39272;-53
2024/03/22 01:21:30;;;;;;;;;62.33;45.00;;;;;8.88;91.65;100490.57;111473;255;40761;-53
2024/03/22 01:24:06;;;;;;;;;51.67;36.33;;;;;8.92;91.53;100490.73;111352;242;161968;-52
2024/03/22 01:26:41;;;;;;;;;60.33;44.00;;;;;8.91;91.63;100489.00;111453;255;39055;-52
2024/03/22 01:29:22;;;;;;;;;54.00;39.00;;;;;8.91;91.83;100491.50;111353;242;162037;-52
2024/03/22 01:32:00;;;;;;;;;58.00;41.00;;;;;8.95;91.81;100489.99;111431;255;39749;-51
2024/03/22 01:34:37;;;;;;;;;64.00;45.67;;;;;8.96;91.83;100487.42;111349;241;162064;-52
2024/03/22 01:37:18;;;;;;;;;62.00;45.00;;;;;8.97;91.89;100491.53;111265;256;42660;-52
2024/03/22 01:40:04;;;;;;;;;56.00;39.50;;;;;9.02;91.83;100498.42;111459;256;40177;-55
2024/03/22 01:42:44;;;;;;;;;69.00;46.00;;;;;8.99;92.11;100496.88;111575;255;39929;-55
2024/03/22 01:45:25;;;;;;;;;67.00;47.00;;;;;8.94;92.34;100493.33;111479;255;40452;-56
2024/03/22 01:48:03;;;;;;;;;56.00;40.25;;;;;8.95;92.45;100491.65;111406;241;162683;-51
2024/03/22 01:50:43;;;;;;;;;68.00;45.00;;;;;8.96;92.56;100493.19;111502;255;40568;-51
2024/03/22 01:53:27;;;;;;;;;52.00;37.00;;;;;8.97;92.55;100490.50;111471;241;161810;-55
2024/03/22 01:56:05;;;;;;;;;53.67;39.00;;;;;8.97;92.54;100489.61;111620;255;39202;-55
2024/03/22 01:58:45;;;;;;;;;61.50;43.50;;;;;8.99;92.62;100492.06;111487;241;162270;-51
2024/03/22 02:01:22;;;;;;;;;57.75;39.00;;;;;9.02;92.78;100489.86;111567;255;41074;-51
2024/03/22 02:04:03;;;;;;;;;61.25;43.50;;;;;9.00;92.98;100487.78;111484;255;39836;-53
2024/03/22 02:06:45;;;;;;;;;62.00;43.50;;;;;9.00;92.87;100482.42;111525;241;161594;-53
2024/03/22 02:09:20;;;;;;;;;53.50;37.00;;;;;9.01;92.95;100481.08;111522;255;40138;-51
2024/03/22 02:12:00;;;;;;;;;57.00;40.00;;;;;9.04;93.02;100482.36;111425;241;161995;-52
2024/03/22 02:14:38;;;;;;;;;59.00;43.00;;;;;9.00;93.33;100475.95;111452;255;39919;-52
2024/03/22 02:17:17;;;;;;;;;64.75;46.00;;;;;9.01;93.47;100475.62;111376;241;161770;-52
2024/03/22 02:19:58;;;;;;;;;69.00;47.00;;;;;9.03;93.47;100477.73;111464;255;40662;-52
2024/03/22 02:22:35;;;;;;;;;52.50;36.50;;;;;9.04;93.41;100475.50;111371;241;162298;-55
2024/03/22 02:25:10;;;;;;;;;52.67;37.67;;;;;9.07;93.33;100474.92;111312;256;39587;-55
2024/03/22 02:27:50;;;;;;;;;62.00;45.00;;;;;9.05;93.61;100472.66;111543;255;38965;-52
2024/03/22 02:30:30;;;;;;;;;59.00;41.00;;;;;9.04;93.74;100474.55;111413;241;161989;-51
2024/03/22 02:33:09;;;;;;;;;47.00;34.33;;;;;9.05;93.89;100476.40;111448;255;39378;-54
2024/03/22 02:35:49;;;;;;;;;47.50;35.25;;;;;9.05;93.86;100477.52;111394;241;161947;-54
2024/03/22 02:38:24;;;;;;;;;58.67;41.00;;;;;9.05;93.95;100481.14;111474;256;40897;-53
2024/03/22 02:40:59;;;;;;;;;62.33;43.33;;;;;9.01;94.20;100476.02;111273;243;162070;-54
2024/03/22 02:43:37;;;;;;;;;52.00;37.00;;;;;9.00;94.18;100475.05;111476;256;39924;-53
2024/03/22 02:46:18;;;;;;;;;54.00;38.00;;;;;8.95;94.45;100471.27;111437;256;40737;-53
2024/03/22 02:48:54;;;;;;;;;46.75;32.50;;;;;9.00;94.59;100474.11;111282;256;40405;-55
2024/03/22 02:51:38;;;;;;;;;51.00;35.00;;;;;9.01;94.54;100474.54;111526;256;41288;-56
2024/03/22 02:54:13;;;;;;;;;53.00;35.00;;;;;9.03;94.68;100473.79;111298;243;161976;-53
2024/03/22 02:56:50;;;;;;;;;53.00;36.50;;;;;9.03;94.63;100473.08;111494;256;40937;-54
2024/03/22 02:59:28;;;;;;;;;54.50;38.50;;;;;9.05;94.56;100478.55;111346;241;161827;-52
2024/03/22 03:02:07;;;;;;;;;44.25;32.50;;;;;9.03;94.68;100475.94;111510;256;39477;-52
2024/03/22 03:04:41;;;;;;;;;45.50;34.00;;;;;9.04;94.66;100474.92;111387;241;161873;-54
2024/03/22 03:07:19;;;;;;;;;50.00;36.00;;;;;9.01;94.79;100474.37;111541;255;39818;-54
2024/03/22 03:10:03;;;;;;;;;52.50;35.50;;;;;9.03;94.78;100473.28;111436;256;39209;-52
2024/03/22 03:12:40;;;;;;;;;56.33;37.33;;;;;9.02;94.77;100470.48;111111;242;161797;-54
2024/03/22 03:15:18;;;;;;;;;49.00;33.00;;;;;9.01;94.86;100474.98;111471;256;39321;-56
2024/03/22 03:17:59;;;;;;;;;53.50;37.00;;;;;8.98;95.02;100474.21;111472;241;162068;-55
2024/03/22 03:20:37;;;;;;;;;53.50;39.00;;;;;8.98;94.84;100484.05;111468;255;39646;-55
2024/03/22 03:23:18;;;;;;;;;43.75;30.25;;;;;8.93;94.84;100484.15;111339;243;161990;-53
2024/03/22 03:25:59;;;;;;;;;48.00;32.00;;;;;8.85;94.83;100482.46;111437;256;39244;-54
2024/03/22 03:28:38;;;;;;;;;51.50;37.00;;;;;8.77;94.86;100488.44;111355;243;162183;-51
2024/03/22 03:31:24;;;;;;;;;56.50;39.00;;;;;8.69;94.96;100496.79;111441;256;39430;-51
2024/03/22 03:34:07;;;;;;;;;48.50;32.00;;;;;8.65;94.99;100494.77;111499;256;39688;-56
2024/03/22 03:36:42;;;;;;;;;45.00;32.75;;;;;8.60;95.08;100498.39;111322;243;39767;-56
2024/03/22 03:39:17;;;;;;;;;45.00;31.50;;;;;8.57;95.03;100497.07;111501;256;39554;-54
2024/03/22 03:42:04;;;;;;;;;47.50;30.00;;;;;8.54;95.07;100497.08;111122;242;162075;-54
2024/03/22 03:44:42;;;;;;;;;42.00;30.00;;;;;8.49;95.20;100494.05;111536;255;39137;-57
2024/03/22 03:47:18;;;;;;;;;50.00;36.00;;;;;8.42;94.98;100505.67;111476;241;161791;-57
2024/03/22 03:49:57;;;;;;;;;48.75;34.00;;;;;8.35;95.16;100507.36;111537;255;39405;-57
2024/03/22 03:52:32;;;;;;;;;42.50;29.50;;;;;8.26;95.10;100506.16;111413;243;163316;-54
2024/03/22 03:55:09;;;;;;;;;46.67;32.00;;;;;8.20;95.15;100507.51;111295;256;39681;-54
2024/03/22 03:57:46;;;;;;;;;52.67;34.33;;;;;8.21;94.90;100514.61;111497;256;39673;-56
2024/03/22 04:00:28;;;;;;;;;48.00;33.00;;;;;8.17;94.90;100513.77;111327;256;161893;-56
2024/03/22 04:03:07;;;;;;;;;50.00;35.67;;;;;8.15;94.77;100509.94;111226;256;40913;-53
2024/03/22 04:05:49;;;;;;;;;50.00;32.67;;;;;8.11;94.88;100514.48;111269;243;161832;-53
2024/03/22 04:08:30;;;;;;;;;47.00;32.33;;;;;8.07;95.04;100515.50;111451;256;40986;-53
2024/03/22 04:11:08;;;;;;;;;47.00;33.33;;;;;8.03;95.14;100520.20;111237;243;162202;-53
2024/03/22 04:13:49;;;;;;;;;40.00;28.00;;;;;8.03;95.26;100522.20;111414;256;39736;-52
2024/03/22 04:16:26;;;;;;;;;42.67;28.67;;;;;7.97;95.33;100527.69;111306;243;161981;-52
2024/03/22 04:19:06;;;;;;;;;47.33;32.00;;;;;7.94;95.42;100524.96;111376;256;39622;-53
2024/03/22 04:21:43;;;;;;;;;45.50;32.00;;;;;7.97;95.35;100525.73;111473;256;40330;-53
2024/03/22 04:24:26;;;;;;;;;43.00;31.00;;;;;7.95;95.45;100524.60;111280;243;186017;-55
2024/03/22 04:27:04;;;;;;;;;47.67;31.00;;;;;7.96;95.44;100526.23;111578;256;40109;-55
2024/03/22 04:29:40;;;;;;;;;52.00;35.50;;;;;7.92;95.45;100527.39;111322;243;161671;-52
2024/03/22 04:32:17;;;;;;;;;41.67;27.33;;;;;7.88;95.74;100528.77;111440;256;39659;-52
2024/03/22 04:34:55;;;;;;;;;51.50;34.50;;;;;7.87;95.72;100532.09;111307;243;161901;-52
2024/03/22 04:37:31;;;;;;;;;43.00;29.00;;;;;7.88;95.76;100531.38;111424;256;39608;-54
2024/03/22 04:40:10;;;;;;;;;47.67;32.00;;;;;7.89;95.58;100528.26;111502;256;40179;-56
2024/03/22 04:42:46;;;;;;;;;44.33;29.67;;;;;7.83;95.75;100526.21;111348;243;39363;-52
2024/03/22 04:45:24;;;;;;;;;49.50;34.50;;;;;7.81;95.68;100523.95;111437;256;39415;-52
2024/03/22 04:48:02;;;;;;;;;46.00;28.00;;;;;7.85;95.49;100526.92;111187;256;161905;-53
2024/03/22 04:50:40;;;;;;;;;42.00;29.33;;;;;7.83;95.47;100529.14;111438;256;39643;-53
2024/03/22 04:53:14;;;;;;;;;42.00;28.00;;;;;7.86;95.50;100529.14;111606;243;161911;-53
2024/03/22 04:55:55;;;;;;;;;42.00;30.00;;;;;7.88;95.50;100531.09;111362;256;39367;-52
2024/03/22 04:58:36;;;;;;;;;44.00;30.00;;;;;7.86;95.43;100531.86;111388;243;161817;-51
2024/03/22 05:01:19;;;;;;;;;40.00;29.00;;;;;7.82;95.78;100531.96;111344;256;39607;-51
2024/03/22 05:03:58;;;;;;;;;49.00;34.00;;;;;7.80;95.84;100537.84;111523;256;39738;-51
2024/03/22 05:06:36;;;;;;;;;41.00;28.33;;;;;7.85;95.74;100539.69;111195;243;161371;-52
2024/03/22 05:09:15;;;;;;;;;44.00;31.00;;;;;7.74;95.88;100536.88;111585;256;40000;-55
2024/03/22 05:11:56;;;;;;;;;46.00;30.00;;;;;7.80;95.74;100538.02;111340;243;161966;-55
2024/03/22 05:14:36;;;;;;;;;40.00;25.33;;;;;7.83;95.45;100536.77;111457;256;39471;-54
2024/03/22 05:17:17;;;;;;;;;44.25;31.00;;;;;7.80;95.51;100536.84;111380;243;161759;-53
2024/03/22 05:19:54;;;;;;;;;38.00;27.75;;;;;7.77;95.62;100536.42;111377;256;39673;-54
2024/03/22 05:22:39;;;;;;;;;35.00;24.67;;;;;7.76;95.74;100532.73;111335;243;162139;-52
2024/03/22 05:25:20;;;;;;;;;40.50;28.00;;;;;7.81;95.51;100535.80;111331;256;39206;-52
2024/03/22 05:28:03;;;;;;;;;37.50;24.75;;;;;7.79;95.53;100538.54;111494;256;39973;-54
2024/03/22 05:30:42;;;;;;;;;44.33;31.00;;;;;7.80;95.68;100539.36;111232;243;161731;-54
2024/03/22 05:33:25;;;;;;;;;34.50;24.50;;;;;7.82;95.43;100539.66;111418;256;39511;-54
2024/03/22 05:36:04;;;;;;;;;49.00;34.00;;;;;7.80;95.71;100539.88;111203;243;162808;-53
2024/03/22 05:38:40;;;;;;;;;42.33;30.00;;;;;7.80;95.62;100537.30;111535;256;39265;-56
2024/03/22 05:41:17;;;;;;;;;36.33;24.00;;;;;7.79;95.76;100536.06;111345;243;162699;-55
2024/03/22 05:43:51;;;;;;;;;43.75;29.00;;;;;7.81;95.66;100537.91;111391;256;39064;-52
2024/03/22 05:46:32;;;;;;;;;33.00;23.00;;;;;7.84;95.63;100541.41;111385;243;161998;-51
2024/03/22 05:49:17;;;;;;;;;32.33;22.33;;;;;7.84;95.73;100541.89;111373;256;39752;-56
2024/03/22 05:52:04;;;;;;;;;36.00;26.00;;;;;7.91;95.57;100538.98;111500;256;40471;-55
2024/03/22 05:54:49;;;;;;;;;44.00;31.00;;;;;7.93;95.62;100536.02;111302;243;162013;-51
2024/03/22 05:57:26;;;;;;;;;40.00;27.00;;;;;7.92;95.53;100535.98;111544;256;39926;-52
2024/03/22 06:00:07;;;;;;;;;43.67;30.67;;;;;7.89;95.67;100536.83;111329;243;162344;-56
2024/03/22 06:02:44;;;;;;;;;36.25;26.00;;;;;7.89;95.71;100532.60;111548;256;39352;-53
2024/03/22 06:05:23;;;;;;;;;37.33;26.00;;;;;7.86;95.80;100531.84;111286;243;162135;-53
2024/03/22 06:07:58;;;;;;;;;30.67;21.33;;;;;7.86;95.91;100535.55;111457;256;39363;-54
2024/03/22 06:10:35;;;;;;;;;41.00;29.00;;;;;7.93;96.05;100537.34;111320;243;162292;-54
2024/03/22 06:13:17;;;;;;;;;38.00;27.00;;;;;7.96;96.19;100537.00;111359;256;39315;-54
2024/03/22 06:15:55;;;;;;;;;30.75;20.75;;;;;7.97;96.06;100542.11;111481;256;39867;-54
2024/03/22 06:18:37;;;;;;;;;39.00;26.00;;;;;7.91;95.97;100547.36;111146;243;161837;-55
2024/03/22 06:21:24;;;;;;;;;38.25;27.00;;;;;7.98;95.77;100548.41;111441;256;40110;-53
2024/03/22 06:24:03;;;;;;;;;42.33;29.33;;;;;8.04;95.92;100545.94;111371;243;162405;-53
2024/03/22 06:26:41;;;;;;;;;39.00;27.00;;;;;8.07;95.88;100543.25;111231;256;42780;-54
2024/03/22 06:29:18;;;;;;;;;44.75;31.00;;;;;8.11;95.92;100539.25;111336;243;162054;-51
2024/03/22 06:32:00;;;;;;;;;35.50;23.75;;;;;8.13;96.13;100542.41;111417;256;39965;-52
2024/03/22 06:34:40;;;;;;;;;39.50;26.25;;;;;8.25;96.07;100533.00;111355;243;162098;-53
2024/03/22 06:37:15;;;;;;;;;36.00;26.00;;;;;8.34;96.04;100535.48;111425;256;40525;-52
2024/03/22 06:40:00;;;;;;;;;38.50;27.00;;;;;8.40;95.92;100538.11;111283;256;39546;-53
2024/03/22 06:42:35;;;;;;;;;40.33;28.67;;;;;8.41;95.95;100540.20;111359;256;161118;-53
2024/03/22 06:45:10;;;;;;;;;42.00;30.00;;;;;8.42;95.99;100533.33;111486;256;39767;-53
2024/03/22 06:47:46;;;;;;;;;33.75;21.50;;;;;8.41;95.94;100538.95;111409;243;161152;-51
2024/03/22 06:50:24;;;;;;;;;37.50;26.00;;;;;8.41;95.87;100536.93;111529;256;39986;-51
2024/03/22 06:53:04;;;;;;;;;35.00;25.50;;;;;8.39;95.75;100531.65;111338;243;162588;-54
2024/03/22 06:55:45;;;;;;;;;41.67;28.00;;;;;8.45;95.56;100530.20;111400;256;40326;-53
2024/03/22 06:58:22;;;;;;;;;35.00;23.67;;;;;8.50;95.43;100534.66;111089;243;162154;-55
2024/03/22 07:01:04;;;;;;;;;39.00;25.00;;;;;8.51;95.27;100533.52;111382;256;40687;-55
2024/03/22 07:03:41;;;;;;;;;33.50;24.50;;;;;8.54;95.25;100529.93;111434;256;39859;-51
2024/03/22 07:06:18;;;;;;;;;39.00;26.00;;;;;8.53;95.35;100532.02;111264;243;161832;-52
2024/03/22 07:08:59;;;;;;;;;37.25;24.50;;;;;8.57;95.18;100534.06;111471;256;40052;-52
2024/03/22 07:11:36;;;;;;;;;41.25;29.00;;;;;8.64;95.09;100536.70;111327;243;161967;-52
2024/03/22 07:14:19;;;;;;;;;39.00;27.00;;;;;8.68;94.92;100538.14;111425;256;39542;-54
2024/03/22 07:16:59;;;;;;;;;37.33;26.33;;;;;8.72;94.88;100535.96;111311;243;161990;-54
2024/03/22 07:19:38;;;;;;;;;42.25;28.25;;;;;8.78;94.78;100535.73;111422;256;39919;-54
2024/03/22 07:22:22;;;;;;;;;40.00;29.00;;;;;8.77;94.80;100536.02;111499;256;39975;-54
2024/03/22 07:24:59;;;;;;;;;35.75;26.00;;;;;8.75;94.84;100541.34;111266;256;40120;-53
2024/03/22 07:27:39;;;;;;;;;33.75;23.00;;;;;8.72;94.83;100541.27;111547;256;39336;-53
2024/03/22 07:30:21;;;;;;;;;41.00;28.00;;;;;8.67;94.96;100536.08;111156;243;161999;-54
2024/03/22 07:33:05;;;;;;;;;39.25;25.50;;;;;8.76;94.75;100529.72;111499;256;39545;-54
2024/03/22 07:35:46;;;;;;;;;40.00;28.00;;;;;8.77;94.69;100527.96;111292;243;161770;-54
2024/03/22 07:38:26;;;;;;;;;39.67;29.00;;;;;8.78;94.75;100525.70;111488;256;39681;-55
2024/03/22 07:41:05;;;;;;;;;33.00;24.50;;;;;8.81;94.95;100525.56;111382;243;162050;-56
2024/03/22 07:43:46;;;;;;;;;47.00;28.00;;;;;8.83;95.14;100525.79;111462;256;39557;-53
2024/03/22 07:46:31;;;;;;;;;32.00;22.75;;;;;8.92;95.01;100521.73;111346;243;162085;-53
2024/03/22 07:49:08;;;;;;;;;35.00;24.00;;;;;9.00;95.00;100523.52;111340;256;39588;-52
2024/03/22 07:51:52;;;;;;;;;33.00;23.25;;;;;8.97;95.21;100518.20;111151;256;40419;-52
2024/03/22 07:54:32;;;;;;;;;40.50;28.00;;;;;8.96;94.72;100515.95;111234;243;161727;-52
2024/03/22 07:57:10;;;;;;;;;38.33;26.67;;;;;9.07;94.21;100521.52;111441;256;41019;-51
2024/03/22 07:59:48;;;;;;;;;41.50;28.75;;;;;9.07;93.93;100518.42;111252;243;162615;-51
2024/03/22 08:02:28;;;;;;;;;39.00;27.00;;;;;9.11;93.77;100519.34;111363;256;39279;-52
2024/03/22 08:05:09;;;;;;;;;36.00;25.50;;;;;9.08;93.64;100517.98;110640;242;727827;-53
2024/03/22 08:07:45;;;;;;;;;37.00;26.00;;;;;8.98;93.85;100517.13;111332;255;40207;-55
2024/03/22 08:10:21;;;;;;;;;38.50;26.00;;;;;8.94;93.79;100516.21;111434;256;40485;-56
2024/03/22 08:13:04;;;;;;;;;37.33;26.00;;;;;8.88;94.04;100516.43;111234;256;39116;-55
2024/03/22 08:15:45;;;;;;;;;37.50;27.00;;;;;8.94;94.03;100516.41;111447;256;39089;-55
2024/03/22 08:18:21;;;;;;;;;30.00;22.00;;;;;9.00;93.91;100513.01;111108;242;161995;-52
2024/03/22 08:20:56;;;;;;;;;33.00;24.50;;;;;9.10;93.66;100512.27;111463;255;39245;-52
2024/03/22 08:23:41;;;;;;;;;43.00;29.33;;;;;9.22;93.74;100512.68;111326;243;162036;-63
2024/03/22 08:26:23;;;;;;;;;39.00;26.00;;;;;9.26;94.04;100508.48;111397;256;39362;-56
2024/03/22 08:29:05;;;;;;;;;44.00;31.00;;;;;9.29;93.74;100510.66;111335;256;162132;-53
2024/03/22 08:31:41;;;;;;;;;28.50;22.00;;;;;9.29;93.74;100510.38;111459;256;40784;-53
2024/03/22 08:34:19;;;;;;;;;36.50;25.50;;;;;9.28;93.53;100513.08;111484;256;40333;-53
2024/03/22 08:36:59;;;;;;;;;41.25;30.25;;;;;9.25;93.55;100511.98;111172;255;42548;-53
2024/03/22 08:39:44;;;;;;;;;36.00;25.00;;;;;9.25;93.62;100512.70;111407;255;40482;-53
2024/03/22 08:42:35;;;;;;;;;32.00;23.25;;;;;9.35;93.62;100504.34;111364;241;163051;-52
